Time;durP1;ratioP1;P1;durP2;ratioP2;P2;SDS_P1;SDS_P2;PMS_P1;PMS_P2;Temp;Humidity;BMP_temperature;BMP_pressure;BME280_temperature;BME280_humidity;BME280_pressure;Samples;Min_cycle;Max_cycle;Signal;HPM_P1;HPM_P2
2022/07/12 00:01:52;;;;;;;5.90;3.10;;;16.40;99.90;;;;;;4849557;29;20053;-78
2022/07/12 00:04:18;;;;;;;3.78;3.38;;;16.40;99.90;;;;;;4865254;29;20079;-78
2022/07/12 00:06:44;;;;;;;3.70;3.10;;;16.30;99.90;;;;;;4865190;29;20084;-78
2022/07/12 00:09:10;;;;;;;4.15;3.15;;;16.30;99.90;;;;;;4881183;29;20047;-78
2022/07/12 00:11:37;;;;;;;6.38;2.88;;;16.20;99.90;;;;;;4880454;29;20492;-78
2022/07/12 00:14:03;;;;;;;3.50;3.00;;;16.20;99.90;;;;;;4834230;29;20037;-77
2022/07/12 00:16:29;;;;;;;3.60;2.92;;;16.20;99.90;;;;;;4848514;29;20041;-77
2022/07/12 00:18:55;;;;;;;4.20;3.40;;;16.20;99.90;;;;;;4878672;29;20097;-78
2022/07/12 00:21:20;;;;;;;3.22;2.88;;;16.10;99.90;;;;;;4847280;29;20052;-77
2022/07/12 00:23:46;;;;;;;3.33;2.97;;;16.10;99.90;;;;;;4879243;29;20048;-78
2022/07/12 00:26:12;;;;;;;3.33;3.03;;;16.10;99.90;;;;;;4880074;29;20052;-78
2022/07/12 00:28:38;;;;;;;4.00;3.05;;;16.00;99.90;;;;;;4849017;29;20079;-78
2022/07/12 00:31:04;;;;;;;4.43;3.35;;;16.00;99.90;;;;;;4849018;29;20494;-78
2022/07/12 00:33:30;;;;;;;3.63;3.08;;;16.00;99.90;;;;;;4865216;29;20045;-78
2022/07/12 00:35:55;;;;;;;3.33;3.00;;;16.00;99.90;;;;;;4849489;29;20615;-78
2022/07/12 00:38:21;;;;;;;3.45;3.15;;;15.90;99.90;;;;;;4880276;29;20625;-78
2022/07/12 00:40:49;;;;;;;3.58;3.10;;;15.90;99.90;;;;;;4865365;29;20048;-78
2022/07/12 00:43:15;;;;;;;3.60;3.10;;;15.90;99.90;;;;;;4863870;29;20422;-78
2022/07/12 00:45:41;;;;;;;3.10;2.78;;;15.80;99.90;;;;;;4849329;29;20041;-78
2022/07/12 00:48:07;;;;;;;3.22;2.90;;;15.80;99.90;;;;;;4879643;29;20041;-78
2022/07/12 00:50:34;;;;;;;3.47;2.90;;;15.80;99.90;;;;;;4879448;29;20158;-78
2022/07/12 00:53:00;;;;;;;3.67;3.17;;;15.70;99.90;;;;;;4864360;29;20435;-78
2022/07/12 00:55:25;;;;;;;3.65;3.03;;;15.70;99.90;;;;;;4864759;29;20474;-78
2022/07/12 00:57:51;;;;;;;3.03;2.58;;;15.70;99.90;;;;;;4880204;29;20080;-78
2022/07/12 01:00:21;;;;;;;3.65;3.03;;;15.70;99.90;;;;;;4865233;29;20049;-78
2022/07/12 01:02:48;;;;;;;3.28;2.88;;;15.70;99.90;;;;;;4879616;29;20071;-78
2022/07/12 01:05:14;;;;;;;4.57;3.05;;;15.70;99.90;;;;;;4833480;29;20040;-78
2022/07/12 01:07:40;;;;;;;3.40;3.10;;;15.70;99.90;;;;;;4865123;29;20040;-78
2022/07/12 01:10:07;;;;;;;3.45;3.10;;;15.70;99.90;;;;;;4879508;29;20390;-77
2022/07/12 01:12:33;;;;;;;4.32;2.95;;;15.70;99.90;;;;;;4879685;29;20053;-78
2022/07/12 01:15:00;;;;;;;3.33;2.90;;;15.70;99.90;;;;;;4879202;29;20045;-78
2022/07/12 01:17:26;;;;;;;3.20;2.90;;;15.70;99.90;;;;;;4848592;29;20053;-78
2022/07/12 01:19:55;;;;;;;3.67;2.88;;;15.70;99.90;;;;;;4863393;29;20051;-78
2022/07/12 01:22:27;;;;;;;3.30;2.75;;;15.70;99.90;;;;;;4863411;29;20041;-78
2022/07/12 01:24:53;;;;;;;2.85;2.50;;;15.70;99.90;;;;;;4863631;29;20045;-78
2022/07/12 01:27:19;;;;;;;2.83;2.40;;;15.60;99.90;;;;;;4848927;29;20101;-78
2022/07/12 01:29:44;;;;;;;4.03;3.00;;;15.60;99.90;;;;;;4863532;29;20041;-78
2022/07/12 01:32:25;;;;;;;3.83;2.65;;;15.60;99.90;;;;;;4848419;29;20040;-78
2022/07/12 01:35:03;;;;;;;4.35;2.92;;;15.50;99.90;;;;;;4882908;29;20109;-78
2022/07/12 01:37:41;;;;;;;3.50;2.90;;;15.50;99.90;;;;;;4882943;29;20049;-78
2022/07/12 01:40:17;;;;;;;3.08;2.78;;;15.50;99.90;;;;;;4866688;29;20069;-78
2022/07/12 01:42:45;;;;;;;3.80;3.10;;;15.50;99.90;;;;;;4866845;29;20057;-78
2022/07/12 01:45:12;;;;;;;3.08;2.60;;;15.50;99.90;;;;;;4852115;29;20056;-78
2022/07/12 01:47:38;;;;;;;4.30;2.65;;;15.40;99.90;;;;;;4851630;29;20092;-78
2022/07/12 01:50:09;;;;;;;2.97;2.67;;;15.40;99.90;;;;;;4867037;29;20596;-77
2022/07/12 01:52:38;;;;;;;3.13;2.83;;;15.40;99.90;;;;;;4882296;29;20163;-78
2022/07/12 01:55:04;;;;;;;3.80;2.50;;;15.30;99.90;;;;;;4882926;29;20056;-77
2022/07/12 01:57:32;;;;;;;3.92;2.65;;;15.30;99.90;;;;;;4851950;29;20041;-78
2022/07/12 02:00:00;;;;;;;3.47;2.70;;;15.20;99.90;;;;;;4852257;29;20048;-78
2022/07/12 02:02:27;;;;;;;3.17;2.50;;;15.20;99.90;;;;;;4866622;29;20044;-78
2022/07/12 02:04:53;;;;;;;2.97;2.63;;;15.20;99.90;;;;;;4836300;29;20052;-78
2022/07/12 02:07:19;;;;;;;4.80;2.92;;;15.20;99.90;;;;;;4881847;29;20100;-78
2022/07/12 02:09:45;;;;;;;3.15;2.80;;;15.10;99.90;;;;;;4881835;29;20462;-78
2022/07/12 02:12:10;;;;;;;3.33;2.50;;;15.10;99.90;;;;;;4851467;29;20045;-78
2022/07/12 02:14:36;;;;;;;3.25;2.60;;;15.10;99.90;;;;;;4850948;29;20416;-78
2022/07/12 02:17:02;;;;;;;3.10;2.70;;;15.10;99.90;;;;;;4850221;29;20505;-77
2022/07/12 02:19:27;;;;;;;3.55;3.10;;;15.10;99.90;;;;;;4834736;29;20057;-78
2022/07/12 02:21:53;;;;;;;3.40;2.88;;;15.00;99.90;;;;;;4850872;29;20048;-78
2022/07/12 02:24:19;;;;;;;4.18;2.50;;;14.90;99.90;;;;;;4851175;29;20041;-78
2022/07/12 02:26:45;;;;;;;3.63;2.75;;;14.90;99.90;;;;;;4866446;29;20146;-78
2022/07/12 02:29:11;;;;;;;3.40;3.03;;;14.80;99.90;;;;;;4866102;29;20041;-78
2022/07/12 02:31:36;;;;;;;3.97;3.03;;;14.80;99.90;;;;;;4850978;29;20048;-78
2022/07/12 02:34:02;;;;;;;8.30;2.90;;;14.70;99.90;;;;;;4866418;29;20045;-78
2022/07/12 02:36:28;;;;;;;6.15;2.65;;;14.70;99.90;;;;;;4866340;29;20044;-78
2022/07/12 02:38:54;;;;;;;7.15;2.28;;;14.70;99.90;;;;;;4865715;29;20048;-78
2022/07/12 02:41:19;;;;;;;2.70;2.33;;;14.60;99.90;;;;;;4835289;29;20033;-78
2022/07/12 02:43:45;;;;;;;4.72;2.38;;;14.60;99.90;;;;;;4849837;29;20185;-77
2022/07/12 02:46:13;;;;;;;3.17;2.60;;;14.60;99.90;;;;;;4850951;29;20142;-77
2022/07/12 02:48:39;;;;;;;7.05;2.40;;;14.60;99.90;;;;;;4850841;29;20080;-77
2022/07/12 02:51:06;;;;;;;2.60;2.30;;;14.50;99.90;;;;;;4850289;29;20040;-77
2022/07/12 02:53:34;;;;;;;2.70;2.33;;;14.50;99.90;;;;;;4865607;29;20060;-77
2022/07/12 02:55:59;;;;;;;4.20;2.17;;;14.50;99.90;;;;;;4850273;29;20051;-77
2022/07/12 02:58:25;;;;;;;13.77;2.38;;;14.50;99.90;;;;;;4864678;29;20053;-77
2022/07/12 03:00:51;;;;;;;7.22;2.40;;;14.50;99.90;;;;;;4865978;29;20045;-77
2022/07/12 03:03:17;;;;;;;7.05;2.47;;;14.40;99.90;;;;;;4881350;29;20097;-77
2022/07/12 03:05:42;;;;;;;2.95;2.15;;;14.40;99.90;;;;;;4880901;29;20462;-77
2022/07/12 03:08:09;;;;;;;4.45;2.10;;;14.30;99.90;;;;;;4850324;29;20041;-77
2022/07/12 03:10:35;;;;;;;6.28;1.80;;;14.30;99.90;;;;;;4865674;29;20128;-77
2022/07/12 03:13:02;;;;;;;2.33;1.95;;;14.30;99.90;;;;;;4865855;29;20080;-77
2022/07/12 03:15:28;;;;;;;6.38;1.90;;;14.30;99.90;;;;;;4865693;29;20044;-77
2022/07/12 03:17:54;;;;;;;8.25;1.98;;;14.30;99.90;;;;;;4850313;29;20645;-78
2022/07/12 03:20:21;;;;;;;13.40;1.92;;;14.20;99.90;;;;;;4865340;29;20052;-77
2022/07/12 03:22:49;;;;;;;7.72;1.75;;;14.10;99.90;;;;;;4865124;29;20490;-77
2022/07/12 03:25:16;;;;;;;6.40;1.80;;;14.10;99.90;;;;;;4849621;29;20391;-77
2022/07/12 03:27:42;;;;;;;2.70;1.85;;;14.10;99.90;;;;;;4866373;29;20085;-77
2022/07/12 03:30:08;;;;;;;1.88;1.48;;;14.00;99.90;;;;;;4866045;29;20048;-77
2022/07/12 03:32:34;;;;;;;2.05;1.52;;;14.00;99.90;;;;;;4866510;29;20041;-77
2022/07/12 03:35:00;;;;;;;1.95;1.58;;;14.00;99.90;;;;;;4850783;29;20192;-77
2022/07/12 03:37:27;;;;;;;2.53;2.00;;;14.00;99.90;;;;;;4865125;29;20052;-77
2022/07/12 03:39:53;;;;;;;2.55;2.00;;;14.00;99.90;;;;;;4865908;29;20107;-77
2022/07/12 03:42:19;;;;;;;2.50;2.00;;;13.90;99.90;;;;;;4865696;29;20061;-77
2022/07/12 03:44:45;;;;;;;5.60;1.80;;;13.90;99.90;;;;;;4865709;29;20055;-77
2022/07/12 03:47:11;;;;;;;18.58;1.92;;;13.90;99.90;;;;;;4849821;29;20119;-77
2022/07/12 03:49:37;;;;;;;5.57;1.90;;;13.90;99.90;;;;;;4849925;29;20083;-77
2022/07/12 03:52:04;;;;;;;3.95;1.55;;;13.80;99.90;;;;;;4866003;29;20045;-78
2022/07/12 03:54:29;;;;;;;1.83;1.60;;;13.80;99.90;;;;;;4865928;29;20045;-78
2022/07/12 03:57:13;;;;;;;4.05;1.60;;;13.80;99.90;;;;;;4865317;29;20052;-77
2022/07/12 03:59:39;;;;;;;4.85;1.85;;;13.70;99.90;;;;;;4840002;29;20049;-78
2022/07/12 04:02:05;;;;;;;1.73;1.52;;;13.70;99.90;;;;;;4880664;29;20045;-77
2022/07/12 04:04:31;;;;;;;7.35;1.90;;;13.70;99.90;;;;;;4849988;29;20037;-78
2022/07/12 04:06:57;;;;;;;2.00;1.52;;;13.70;99.90;;;;;;4850129;29;20136;-78
2022/07/12 04:09:22;;;;;;;5.10;1.67;;;13.70;99.90;;;;;;4864853;29;20044;-77
2022/07/12 04:11:48;;;;;;;4.28;1.83;;;13.70;99.90;;;;;;4879994;29;20076;-78
2022/07/12 04:14:15;;;;;;;8.60;2.05;;;13.70;99.90;;;;;;4849302;29;20405;-77
2022/07/12 04:16:41;;;;;;;3.28;1.70;;;13.70;99.90;;;;;;4864959;29;20080;-77
2022/07/12 04:19:08;;;;;;;2.20;1.80;;;13.70;99.90;;;;;;4880711;29;20128;-78
2022/07/12 04:21:35;;;;;;;2.30;1.75;;;13.80;99.90;;;;;;4850371;29;20044;-78
2022/07/12 04:24:01;;;;;;;2.28;1.85;;;13.70;99.90;;;;;;4864852;29;20060;-78
2022/07/12 04:26:27;;;;;;;2.60;2.00;;;13.80;99.90;;;;;;4864339;29;20041;-78
2022/07/12 04:28:52;;;;;;;2.47;1.90;;;13.80;99.90;;;;;;4848832;29;20037;-78
2022/07/12 04:31:18;;;;;;;2.55;2.10;;;13.80;99.90;;;;;;4849733;29;20052;-78
2022/07/12 04:33:44;;;;;;;2.75;1.80;;;13.80;99.90;;;;;;4865479;29;20052;-78
2022/07/12 04:36:09;;;;;;;3.38;2.22;;;13.90;99.90;;;;;;4833028;29;20052;-78
2022/07/12 04:38:35;;;;;;;3.35;2.35;;;13.90;99.90;;;;;;4864766;29;20097;-78
2022/07/12 04:41:01;;;;;;;3.20;2.80;;;13.80;99.90;;;;;;4849991;29;20052;-78
2022/07/12 04:43:26;;;;;;;3.22;2.72;;;13.90;99.90;;;;;;4849234;29;20421;-78
2022/07/12 04:45:53;;;;;;;3.90;3.03;;;13.90;99.90;;;;;;4834032;29;20053;-78
2022/07/12 04:48:19;;;;;;;4.22;2.97;;;13.90;99.90;;;;;;4863539;29;20045;-78
2022/07/12 04:50:45;;;;;;;3.60;2.75;;;13.90;99.90;;;;;;4864117;29;20565;-78
2022/07/12 04:53:11;;;;;;;3.72;3.33;;;14.00;99.90;;;;;;4834400;29;20057;-78
2022/07/12 04:55:37;;;;;;;4.72;3.00;;;14.00;99.90;;;;;;4849762;29;20108;-77
2022/07/12 04:58:06;;;;;;;3.42;3.00;;;14.00;99.90;;;;;;4849807;29;20143;-78
2022/07/12 05:00:32;;;;;;;3.67;2.70;;;14.10;99.90;;;;;;4849569;29;20041;-78
2022/07/12 05:02:57;;;;;;;3.17;2.75;;;14.10;99.90;;;;;;4880346;29;20091;-78
2022/07/12 05:05:23;;;;;;;3.05;2.45;;;14.20;99.90;;;;;;4865547;29;20045;-77
2022/07/12 05:07:49;;;;;;;3.63;2.50;;;14.20;99.90;;;;;;4849032;29;20037;-78
2022/07/12 05:10:14;;;;;;;2.83;2.47;;;14.30;99.90;;;;;;4849660;29;20044;-77
2022/07/12 05:12:40;;;;;;;3.72;3.33;;;14.40;99.90;;;;;;4880235;29;20045;-78
2022/07/12 05:15:07;;;;;;;4.03;3.63;;;14.50;99.90;;;;;;4864894;29;20060;-78
2022/07/12 05:17:33;;;;;;;4.18;3.78;;;14.60;99.90;;;;;;4863687;29;20045;-78
2022/07/12 05:19:59;;;;;;;5.50;4.25;;;14.70;99.90;;;;;;4879348;29;20101;-78
2022/07/12 05:22:25;;;;;;;5.20;4.45;;;14.90;99.90;;;;;;4864687;29;20049;-78
2022/07/12 05:24:50;;;;;;;4.55;4.15;;;15.00;99.90;;;;;;4880069;29;20045;-77
2022/07/12 05:27:16;;;;;;;4.45;4.05;;;15.10;99.90;;;;;;4849080;29;20041;-78
2022/07/12 05:29:42;;;;;;;5.07;4.60;;;15.20;99.90;;;;;;4879202;29;20064;-78
2022/07/12 05:32:08;;;;;;;5.55;5.03;;;15.40;99.90;;;;;;4833228;29;20056;-78
2022/07/12 05:34:33;;;;;;;5.80;5.10;;;15.50;99.90;;;;;;4833742;29;20076;-78
2022/07/12 05:36:59;;;;;;;6.45;5.75;;;15.60;99.90;;;;;;4848673;29;20087;-78
2022/07/12 05:39:25;;;;;;;6.03;5.53;;;15.60;99.90;;;;;;4848272;29;20045;-78
2022/07/12 05:41:51;;;;;;;6.38;5.78;;;15.70;99.90;;;;;;4862244;29;20052;-78
2022/07/12 05:44:18;;;;;;;6.05;5.45;;;15.70;99.90;;;;;;4847230;29;20060;-77
2022/07/12 05:46:45;;;;;;;6.43;5.82;;;15.70;99.90;;;;;;4847991;29;20061;-77
2022/07/12 05:49:11;;;;;;;6.03;5.53;;;15.80;99.90;;;;;;4877994;29;20044;-78
2022/07/12 05:54:20;;;;;;;6.15;5.65;;;15.90;99.90;;;;;;4877620;29;20164;-78
2022/07/12 05:56:46;;;;;;;6.28;5.78;;;16.00;99.90;;;;;;4878155;29;20072;-78
2022/07/12 05:59:12;;;;;;;6.10;5.50;;;16.00;99.90;;;;;;4849199;29;20135;-77
2022/07/12 06:01:37;;;;;;;6.32;5.82;;;16.10;99.90;;;;;;4863706;29;20045;-78
2022/07/12 06:04:03;;;;;;;5.90;5.30;;;16.10;99.90;;;;;;4849692;29;20105;-78
2022/07/12 06:06:29;;;;;;;6.30;5.80;;;16.10;99.90;;;;;;4848757;29;20324;-78
2022/07/12 06:08:55;;;;;;;5.57;5.07;;;16.20;99.90;;;;;;4864183;29;20076;-78
2022/07/12 06:11:20;;;;;;;6.22;5.72;;;16.20;99.90;;;;;;4863972;29;20049;-78
2022/07/12 06:13:46;;;;;;;6.38;5.60;;;16.20;99.90;;;;;;4847131;29;20045;-77
2022/07/12 06:16:12;;;;;;;7.88;6.05;;;16.40;99.90;;;;;;4878987;29;20097;-78
2022/07/12 06:18:38;;;;;;;6.68;6.07;;;16.40;99.90;;;;;;4864698;29;20079;-78
2022/07/12 06:21:04;;;;;;;6.32;5.82;;;16.50;99.90;;;;;;4852016;29;20051;-78
2022/07/12 06:23:30;;;;;;;6.00;5.50;;;16.60;99.90;;;;;;4867475;29;20041;-78
2022/07/12 06:25:56;;;;;;;6.20;5.60;;;16.70;99.90;;;;;;4851547;29;20097;-78
2022/07/12 06:28:22;;;;;;;6.13;5.53;;;16.70;99.90;;;;;;4867779;29;20037;-78
2022/07/12 06:30:48;;;;;;;5.82;5.22;;;16.80;99.90;;;;;;4867408;29;20378;-78
2022/07/12 06:33:13;;;;;;;5.28;4.78;;;16.90;99.90;;;;;;4851944;29;20049;-78
2022/07/12 06:35:39;;;;;;;5.93;5.30;;;17.00;99.90;;;;;;4867626;29;20132;-78
2022/07/12 06:38:05;;;;;;;5.47;4.97;;;17.10;99.90;;;;;;4882548;29;20421;-78
2022/07/12 06:40:30;;;;;;;5.70;5.20;;;17.20;99.90;;;;;;4851536;29;20061;-78
2022/07/12 06:42:56;;;;;;;8.73;4.70;;;17.30;99.90;;;;;;4866982;29;20056;-78
2022/07/12 06:45:22;;;;;;;5.55;4.95;;;17.50;99.90;;;;;;4851823;29;20044;-78
2022/07/12 06:47:48;;;;;;;5.05;4.55;;;17.60;99.90;;;;;;4866350;29;20072;-78
2022/07/12 06:50:14;;;;;;;5.20;4.70;;;17.80;99.90;;;;;;4850618;29;20129;-78
2022/07/12 06:52:39;;;;;;;5.38;4.82;;;18.10;99.90;;;;;;4836183;29;20124;-78
2022/07/12 06:55:06;;;;;;;5.03;4.53;;;18.30;99.90;;;;;;4882421;29;20063;-78
2022/07/12 06:57:33;;;;;;;5.55;4.15;;;18.50;99.90;;;;;;4851728;29;20060;-78
2022/07/12 06:59:59;;;;;;;5.32;4.82;;;18.70;99.90;;;;;;4851719;29;20052;-78
2022/07/12 07:02:25;;;;;;;6.85;4.43;;;18.90;99.90;;;;;;4882648;29;20045;-78
2022/07/12 07:04:51;;;;;;;5.65;5.15;;;19.10;99.90;;;;;;4851842;29;20458;-78
2022/07/12 07:07:17;;;;;;;6.78;5.22;;;19.20;99.90;;;;;;4867082;29;20072;-78
2022/07/12 07:09:43;;;;;;;6.88;4.43;;;19.40;99.90;;;;;;4866493;29;20041;-79
2022/07/12 07:12:09;;;;;;;4.55;4.15;;;19.60;99.90;;;;;;4865419;29;20184;-78
2022/07/12 07:14:35;;;;;;;5.45;4.65;;;19.60;99.90;;;;;;4882492;29;20104;-78
2022/07/12 07:17:01;;;;;;;5.50;4.47;;;19.70;99.90;;;;;;4867129;29;20139;-79
2022/07/12 07:19:26;;;;;;;4.65;4.25;;;19.80;99.90;;;;;;4867694;29;20076;-78
2022/07/12 07:21:54;;;;;;;5.60;4.40;;;19.80;99.90;;;;;;4851795;29;20049;-78
2022/07/12 07:24:21;;;;;;;4.95;3.65;;;19.80;99.90;;;;;;4867670;29;20040;-79
2022/07/12 07:26:47;;;;;;;4.40;3.90;;;19.80;99.90;;;;;;4867153;29;20045;-79
2022/07/12 07:31:57;;;;;;;4.22;3.63;;;19.90;99.90;;;;;;4881118;29;20402;-78
2022/07/12 07:34:23;;;;;;;4.40;3.80;;;20.00;99.90;;;;;;4866545;29;20036;-79
2022/07/12 07:36:50;;;;;;;7.07;4.78;;;20.20;99.90;;;;;;4882290;29;20097;-78
2022/07/12 07:39:16;;;;;;;4.20;3.90;;;20.50;99.90;;;;;;4882048;29;20049;-79
2022/07/12 07:41:41;;;;;;;4.93;3.85;;;20.80;99.90;;;;;;4866146;29;20052;-79
2022/07/12 07:44:07;;;;;;;4.20;3.80;;;21.20;99.90;;;;;;4851127;29;20049;-79
2022/07/12 07:46:33;;;;;;;4.05;3.65;;;21.60;99.90;;;;;;4866925;29;20044;-79
2022/07/12 07:48:58;;;;;;;4.07;3.72;;;21.90;99.90;;;;;;4851007;29;20508;-79
2022/07/12 07:51:24;;;;;;;3.78;3.47;;;22.30;99.90;;;;;;4864190;29;20048;-79
2022/07/12 07:53:50;;;;;;;4.65;3.50;;;22.60;99.90;;;;;;4881333;29;20080;-79
2022/07/12 07:56:15;;;;;;;6.05;3.47;;;22.90;99.90;;;;;;4866304;29;20041;-79
2022/07/12 07:58:41;;;;;;;3.47;3.17;;;23.10;99.90;;;;;;4866608;29;20041;-79
2022/07/12 08:01:07;;;;;;;3.55;3.25;;;23.20;99.90;;;;;;4851281;29;20037;-79
2022/07/12 08:03:33;;;;;;;3.55;3.22;;;23.20;99.90;;;;;;4850762;29;20478;-79
2022/07/12 08:06:00;;;;;;;4.05;3.00;;;23.20;99.90;;;;;;4865758;29;20080;-79
2022/07/12 08:08:27;;;;;;;4.47;3.17;;;23.10;99.90;;;;;;4851223;29;20049;-79
2022/07/12 08:10:53;;;;;;;3.78;2.70;;;23.10;99.90;;;;;;4866173;29;20044;-79
2022/07/12 08:13:19;;;;;;;3.90;2.70;;;23.10;99.90;;;;;;4866235;29;20049;-79
2022/07/12 08:15:45;;;;;;;3.05;2.47;;;23.20;99.90;;;;;;4835149;29;20052;-79
2022/07/12 08:18:11;;;;;;;2.85;2.58;;;23.20;99.90;;;;;;4850552;29;20494;-79
2022/07/12 08:20:36;;;;;;;3.08;2.58;;;23.20;99.90;;;;;;4850054;29;20041;-79
2022/07/12 08:23:02;;;;;;;2.60;2.40;;;23.20;99.90;;;;;;4834598;29;20068;-79
2022/07/12 08:25:28;;;;;;;2.63;2.38;;;23.10;99.90;;;;;;4849747;29;20128;-79
2022/07/12 08:27:54;;;;;;;2.42;2.22;;;22.90;99.90;;;;;;4849609;29;20049;-79
2022/07/12 08:30:20;;;;;;;3.30;2.75;;;22.90;99.90;;;;;;4865463;29;20041;-79
2022/07/12 08:32:46;;;;;;;2.60;2.40;;;22.80;99.90;;;;;;4865525;29;20061;-79
2022/07/12 08:35:14;;;;;;;4.38;2.55;;;22.80;99.90;;;;;;4866016;29;20045;-79
2022/07/12 08:37:40;;;;;;;2.97;2.25;;;22.70;99.90;;;;;;4880789;29;20060;-79
2022/07/12 08:40:06;;;;;;;7.60;3.13;;;22.70;99.90;;;;;;4880178;29;20128;-79
2022/07/12 08:42:33;;;;;;;3.13;2.78;;;22.70;99.90;;;;;;4879037;29;20061;-79
2022/07/12 08:44:59;;;;;;;3.13;2.63;;;22.70;99.90;;;;;;4880033;29;20092;-79
2022/07/12 08:47:25;;;;;;;3.50;2.65;;;22.70;99.90;;;;;;4881027;29;20037;-79
2022/07/12 08:50:13;;;;;;;2.22;2.03;;;22.80;99.90;;;;;;4864998;29;20041;-78
2022/07/12 08:52:44;;;;;;;3.00;2.70;;;23.00;99.90;;;;;;4865344;29;20045;-79
2022/07/12 08:55:23;;;;;;;2.95;2.63;;;23.10;99.90;;;;;;4880962;29;20047;-79
2022/07/12 08:57:51;;;;;;;3.40;3.10;;;23.40;99.90;;;;;;4880624;29;20053;-79
2022/07/12 09:00:17;;;;;;;4.65;2.63;;;23.60;99.90;;;;;;4865366;29;20047;-79
2022/07/12 09:02:46;;;;;;;2.88;2.50;;;23.80;99.90;;;;;;4865153;29;20048;-79
2022/07/12 09:05:13;;;;;;;5.88;3.00;;;24.10;99.90;;;;;;4878841;29;20045;-79
2022/07/12 09:07:39;;;;;;;3.05;2.80;;;24.30;99.90;;;;;;4832764;29;20413;-79
2022/07/12 09:10:07;;;;;;;6.00;3.20;;;24.50;99.90;;;;;;4834433;29;20040;-78
2022/07/12 09:12:34;;;;;;;7.10;3.13;;;24.60;99.90;;;;;;4880987;29;20045;-79
2022/07/12 09:15:19;;;;;;;3.83;2.97;;;24.80;99.90;;;;;;4881330;29;20505;-79
2022/07/12 09:17:55;;;;;;;3.80;3.20;;;24.90;99.90;;;;;;4864977;29;20136;-79
2022/07/12 09:20:20;;;;;;;3.58;2.83;;;25.00;99.90;;;;;;4880868;29;20052;-79
2022/07/12 09:22:59;;;;;;;5.18;2.90;;;25.10;99.90;;;;;;4849579;29;20041;-79
2022/07/12 09:25:25;;;;;;;4.25;3.30;;;25.10;99.90;;;;;;4864697;29;20096;-79
2022/07/12 09:27:53;;;;;;;4.65;3.33;;;25.10;99.90;;;;;;4849984;29;20041;-79
2022/07/12 09:30:23;;;;;;;3.65;2.67;;;25.20;99.90;;;;;;4879884;29;20036;-79
2022/07/12 09:36:07;;;;;;;2.92;2.63;;;25.20;99.90;;;;;;4879400;29;20049;-79
2022/07/12 09:38:33;;;;;;;;;;;25.20;99.90;;;;;;4864406;29;20072;-79
2022/07/12 09:40:59;;;;;;;;;;;25.10;99.90;;;;;;4849199;29;19967;-79
2022/07/12 09:43:26;;;;;;;;;;;25.20;99.90;;;;;;4864517;29;19931;-79
2022/07/12 09:45:52;;;;;;;4.20;2.30;;;25.20;99.90;;;;;;4879072;29;19920;-79
2022/07/12 09:48:20;;;;;;;3.20;2.25;;;25.30;99.90;;;;;;4864529;29;20044;-79
2022/07/12 09:50:51;;;;;;;2.40;2.20;;;25.40;99.90;;;;;;4863915;29;20475;-79
2022/07/12 09:53:47;;;;;;;2.28;2.00;;;25.40;99.90;;;;;;4864809;29;20036;-79
2022/07/12 09:56:15;;;;;;;3.45;1.80;;;25.40;99.90;;;;;;4868637;29;20044;-78
2022/07/12 09:58:53;;;;;;;2.83;1.70;;;25.30;99.90;;;;;;4884170;29;20065;-79
2022/07/12 10:01:20;;;;;;;4.40;2.10;;;25.40;99.90;;;;;;4867295;29;20044;-79
2022/07/12 10:03:46;;;;;;;2.03;1.83;;;25.40;99.90;;;;;;4867930;29;20053;-79
2022/07/12 10:06:15;;;;;;;3.65;2.03;;;25.40;99.90;;;;;;4884325;29;20044;-79
2022/07/12 10:08:41;;;;;;;2.90;2.00;;;25.30;99.90;;;;;;4883746;29;20080;-79
2022/07/12 10:11:07;;;;;;;3.17;2.10;;;25.40;99.90;;;;;;4883588;29;20048;-79
2022/07/12 10:13:35;;;;;;;3.58;2.58;;;25.40;99.90;;;;;;4884171;29;20075;-78
2022/07/12 10:16:02;;;;;;;2.55;2.20;;;25.50;99.90;;;;;;4868527;29;20127;-79
2022/07/12 10:18:29;;;;;;;4.90;1.70;;;25.50;99.90;;;;;;4837648;29;20049;-79
2022/07/12 10:20:55;;;;;;;3.65;1.75;;;25.60;99.90;;;;;;4867934;29;20053;-78
2022/07/12 10:23:36;;;;;;;1.73;1.63;;;25.70;99.90;;;;;;4882945;29;20127;-80
2022/07/12 10:26:14;;;;;;;1.65;1.40;;;25.70;98.80;;;;;;4867760;29;20105;-79
2022/07/12 10:29:06;;;;;;;3.00;1.42;;;25.70;99.20;;;;;;4868176;29;20049;-79
2022/07/12 10:31:37;;;;;;;2.03;1.48;;;25.70;98.40;;;;;;4867867;29;20109;-79
2022/07/12 10:34:14;;;;;;;2.20;1.77;;;25.70;98.40;;;;;;4868081;29;20055;-79
2022/07/12 10:36:55;;;;;;;4.43;2.45;;;25.70;99.10;;;;;;4866631;29;20044;-80
2022/07/12 10:39:22;;;;;;;2.35;1.60;;;25.70;98.40;;;;;;4880766;29;20104;-79
2022/07/12 10:42:07;;;;;;;1.80;1.10;;;25.60;98.60;;;;;;4865618;29;20049;-80
2022/07/12 10:44:41;;;;;;;2.28;1.90;;;25.60;98.40;;;;;;4882776;29;20057;-78
2022/07/12 10:47:08;;;;;;;3.65;2.00;;;25.60;97.50;;;;;;4868392;29;20049;-80
2022/07/12 10:49:35;;;;;;;2.78;2.03;;;25.50;98.00;;;;;;4852400;29;20051;-79
2022/07/12 10:52:14;;;;;;;5.15;1.67;;;25.50;98.30;;;;;;4867472;29;20041;-80
2022/07/12 10:55:08;;;;;;;2.80;1.77;;;25.40;98.50;;;;;;4867591;29;20045;-78
2022/07/12 10:57:49;;;;;;;1.00;0.90;;;25.40;98.60;;;;;;4881620;29;20095;-78
2022/07/12 11:00:15;;;;;;;3.03;1.50;;;25.40;97.40;;;;;;4866536;29;20036;-79
2022/07/12 11:02:41;;;;;;;1.77;1.20;;;25.40;97.70;;;;;;4867127;29;20389;-79
2022/07/12 11:05:08;;;;;;;2.10;1.45;;;25.50;97.50;;;;;;4866669;29;20045;-80
2022/07/12 11:07:34;;;;;;;1.50;1.40;;;25.50;97.40;;;;;;4851554;29;20101;-77
2022/07/12 11:10:00;;;;;;;2.90;1.60;;;25.50;97.70;;;;;;4851350;29;20049;-80
2022/07/12 11:12:32;;;;;;;1.70;1.50;;;25.50;97.70;;;;;;4866895;29;20060;-80
2022/07/12 11:15:03;;;;;;;3.05;1.67;;;25.60;97.70;;;;;;4865994;29;20127;-79
2022/07/12 11:17:31;;;;;;;5.30;2.03;;;25.60;98.10;;;;;;4864863;29;20136;-80
2022/07/12 11:20:27;;;;;;;2.47;1.77;;;25.60;98.50;;;;;;4880103;29;20049;-79
2022/07/12 11:22:53;;;;;;;2.03;1.83;;;25.70;98.70;;;;;;4863587;29;20140;-79
2022/07/12 11:25:19;;;;;;;2.95;1.67;;;25.70;99.30;;;;;;4865899;29;20136;-78
2022/07/12 11:27:45;;;;;;;2.60;1.70;;;25.80;99.30;;;;;;4882250;29;20077;-80
2022/07/12 11:30:13;;;;;;;2.20;1.77;;;25.90;99.30;;;;;;4836875;29;20059;-79
2022/07/12 11:32:41;;;;;;;2.35;1.92;;;26.00;99.60;;;;;;4882550;29;20063;-78
2022/07/12 11:35:22;;;;;;;3.00;2.00;;;26.10;99.10;;;;;;4850350;29;20052;-79
2022/07/12 11:37:49;;;;;;;2.65;2.10;;;26.20;99.10;;;;;;4865761;29;20135;-80
2022/07/12 11:40:15;;;;;;;2.03;1.83;;;26.20;99.20;;;;;;4850183;29;20041;-79
2022/07/12 11:42:53;;;;;;;2.40;1.70;;;26.30;99.20;;;;;;4881108;29;20061;-79
2022/07/12 11:45:18;;;;;;;2.53;1.90;;;26.30;98.50;;;;;;4864494;29;20049;-80
2022/07/12 11:47:44;;;;;;;2.60;1.88;;;26.40;99.50;;;;;;4866034;29;20052;-78
2022/07/12 11:50:10;;;;;;;4.28;2.38;;;26.60;99.90;;;;;;4865367;29;20124;-79
2022/07/12 11:52:36;;;;;;;5.95;2.03;;;26.60;99.20;;;;;;4850475;29;20634;-78
2022/07/12 11:55:07;;;;;;;3.78;1.90;;;26.70;99.00;;;;;;4852234;29;20044;-78
2022/07/12 11:57:33;;;;;;;2.10;1.90;;;26.90;98.40;;;;;;4866499;29;20097;-80
2022/07/12 12:00:14;;;;;;;2.45;1.95;;;26.90;98.30;;;;;;4866768;29;20045;-79
2022/07/12 12:02:39;;;;;;;2.63;1.70;;;26.90;98.10;;;;;;4866283;29;20109;-80
2022/07/12 12:05:05;;;;;;;2.78;1.77;;;27.00;98.00;;;;;;4850895;29;20044;-78
2022/07/12 12:07:32;;;;;;;2.95;1.70;;;27.10;98.20;;;;;;4850714;29;20482;-80
2022/07/12 12:09:58;;;;;;;3.00;1.65;;;27.10;97.80;;;;;;4865461;29;20128;-78
2022/07/12 12:12:24;;;;;;;3.05;1.70;;;27.10;97.70;;;;;;4850208;29;20394;-78
2022/07/12 12:14:50;;;;;;;1.30;1.20;;;27.20;96.60;;;;;;4849987;29;20056;-79
2022/07/12 12:17:15;;;;;;;2.83;1.35;;;27.20;96.40;;;;;;4848872;29;20083;-79
2022/07/12 12:19:42;;;;;;;2.08;1.50;;;27.30;95.90;;;;;;4865734;29;20041;-79
2022/07/12 12:22:33;;;;;;;1.83;1.60;;;27.30;95.60;;;;;;4849585;29;20086;-79
2022/07/12 12:25:00;;;;;;;1.77;1.65;;;27.30;95.40;;;;;;4880133;29;20040;-79
2022/07/12 12:27:26;;;;;;;2.72;1.50;;;27.30;95.70;;;;;;4849170;29;20052;-79
2022/07/12 12:29:52;;;;;;;1.90;1.30;;;27.40;95.80;;;;;;4864668;29;20045;-78
2022/07/12 12:32:18;;;;;;;1.95;1.60;;;27.50;95.80;;;;;;4863970;29;20094;-79
2022/07/12 12:35:09;;;;;;;1.85;1.50;;;27.70;95.50;;;;;;4863406;29;20057;-79
2022/07/12 12:37:35;;;;;;;1.40;1.30;;;27.90;94.70;;;;;;4879465;29;20052;-79
2022/07/12 12:40:02;;;;;;;1.90;1.30;;;28.10;95.60;;;;;;4865247;29;20041;-80
2022/07/12 12:42:28;;;;;;;2.22;1.20;;;28.40;95.90;;;;;;4865789;29;20064;-78
2022/07/12 12:44:54;;;;;;;1.80;1.17;;;28.70;95.10;;;;;;4833756;29;20045;-80
2022/07/12 12:47:32;;;;;;;1.33;1.10;;;29.10;94.40;;;;;;4880292;29;20055;-80
2022/07/12 12:50:01;;;;;;;1.83;0.85;;;29.30;93.80;;;;;;4849931;29;20045;-80
2022/07/12 12:52:30;;;;;;;1.90;0.90;;;29.70;93.40;;;;;;4878499;29;20522;-78
2022/07/12 12:54:57;;;;;;;1.23;0.80;;;29.90;91.30;;;;;;4864730;29;20482;-79
2022/07/12 12:57:25;;;;;;;0.80;0.77;;;30.10;89.00;;;;;;4880910;29;20051;-80
2022/07/12 12:59:52;;;;;;;0.80;0.80;;;30.10;86.10;;;;;;4863300;29;20084;-79